Virtual LH

Virtual LH. There's no better way to fly
Since 2013.



 METAR AND TAF INFORMATION
METAR FOR SBGR
ADDS - METARS form results

(1258 UTC 23 May 2018)
Data provider http://aviationweather.gov/adds/metars/
 
METAR text: SBGR 231200Z 30002KT 3000 BR BKN005 14/12 Q1024
Conditions at: SBGR (GUARULHOS (CIV/M, BR) observed 1200 UTC 23 May 2018
Temperature: 14.0°C (57°F)
Dewpoint: 12.0°C (54°F) [RH = 88%]
Pressure (altimeter): 30.24 inches Hg (1024.0 mb)
Winds: from the WNW (300 degrees) at 2 MPH (2 knots; 1.0 m/s)
Visibility: 1.86 miles (2.99 km)
Ceiling: 500 feet AGL
Clouds: broken clouds at 500 feet AGL
Weather: BR  (mist)

Forecast for: SBGR (GUARULHOS (CIV/M, BR)
Text: TAF SBGR 231002Z 2312/2418 09002KT 8000 NSC TX22/2317Z TN08/2409Z
Forecast period: 1200 to 1300 UTC 23 May 2018
Forecast type: FROM: standard forecast or significant change
Winds: from the E (90 degrees) at 2 MPH (2 knots; 1.0 m/s)
Visibility: 5 miles (8 km)
Clouds: not forecast
Weather: no significant weather forecast for this period
Forecast for: SBGR (GUARULHOS (CIV/M, BR)
Text: TAF SBGR 231002Z 2312/2418 09002KT 8000 NSC TX22/2317Z TN08/2409Z
Forecast period: 1200 to 1300 UTC 23 May 2018
Forecast type: FROM: standard forecast or significant change
Winds: from the E (90 degrees) at 2 MPH (2 knots; 1.0 m/s)
Visibility: 5 miles (8 km)
Clouds: not forecast
Weather: no significant weather forecast for this period
Forecast for: SBGR (GUARULHOS (CIV/M, BR)
Text: TAF SBGR 231002Z 2312/2418 09002KT 8000 NSC TX22/2317Z TN08/2409Z
Forecast period: 1300 to 1700 UTC 23 May 2018
Forecast type: BECOMING: Conditions expected to become as follows by 1500 UTC 23 May 2018
Winds: from the ESE (110 degrees) at 6 MPH (5 knots; 2.6 m/s)
Visibility: 5 miles (8 km)
Weather: no significant weather forecast for this period
Forecast for: SBGR (GUARULHOS (CIV/M, BR)
Text: TAF SBGR 231002Z 2312/2418 09002KT 8000 NSC TX22/2317Z TN08/2409Z
Forecast period: 1300 to 1700 UTC 23 May 2018
Forecast type: BECOMING: Conditions expected to become as follows by 1500 UTC 23 May 2018
Winds: from the ESE (110 degrees) at 6 MPH (5 knots; 2.6 m/s)
Visibility: 5 miles (8 km)
Weather: no significant weather forecast for this period
Forecast for: SBGR (GUARULHOS (CIV/M, BR)
Text: TAF SBGR 231002Z 2312/2418 09002KT 8000 NSC TX22/2317Z TN08/2409Z
Forecast period: 1700 to 2100 UTC 23 May 2018
Forecast type: BECOMING: Conditions expected to become as follows by 1900 UTC 23 May 2018
Winds: from the SSE (150 degrees) at 7 MPH (6 knots; 3.1 m/s)
Visibility: 5 miles (8 km)
Weather: no significant weather forecast for this period
Forecast for: SBGR (GUARULHOS (CIV/M, BR)
Text: TAF SBGR 231002Z 2312/2418 09002KT 8000 NSC TX22/2317Z TN08/2409Z
Forecast period: 1700 to 2100 UTC 23 May 2018
Forecast type: BECOMING: Conditions expected to become as follows by 1900 UTC 23 May 2018
Winds: from the SSE (150 degrees) at 7 MPH (6 knots; 3.1 m/s)
Visibility: 5 miles (8 km)
Weather: no significant weather forecast for this period
Forecast for: SBGR (GUARULHOS (CIV/M, BR)
Text: TAF SBGR 231002Z 2312/2418 09002KT 8000 NSC TX22/2317Z TN08/2409Z
Forecast period: 2100 to 2300 UTC 23 May 2018
Forecast type: BECOMING: Conditions expected to become as follows by 2300 UTC 23 May 2018
Winds: from the SSE (150 degrees) at 2 MPH (2 knots; 1.0 m/s)
Visibility: 5 miles (8 km)
Weather: no significant weather forecast for this period
Forecast for: SBGR (GUARULHOS (CIV/M, BR)
Text: TAF SBGR 231002Z 2312/2418 09002KT 8000 NSC TX22/2317Z TN08/2409Z
Forecast period: 2100 to 2300 UTC 23 May 2018
Forecast type: BECOMING: Conditions expected to become as follows by 2300 UTC 23 May 2018
Winds: from the SSE (150 degrees) at 2 MPH (2 knots; 1.0 m/s)
Visibility: 5 miles (8 km)
Weather: no significant weather forecast for this period
Forecast for: SBGR (GUARULHOS (CIV/M, BR)
Text: TAF SBGR 231002Z 2312/2418 09002KT 8000 NSC TX22/2317Z TN08/2409Z
Forecast period: 2300 UTC 23 May 2018 to 1200 UTC 24 May 2018
Forecast type: BECOMING: Conditions expected to become as follows by 0100 UTC 24 May 2018
Winds: from the E (90 degrees) at 2 MPH (2 knots; 1.0 m/s)
Visibility: 5 miles (8 km)
Weather: no significant weather forecast for this period
Forecast for: SBGR (GUARULHOS (CIV/M, BR)
Text: TAF SBGR 231002Z 2312/2418 09002KT 8000 NSC TX22/2317Z TN08/2409Z
Forecast period: 2300 UTC 23 May 2018 to 1200 UTC 24 May 2018
Forecast type: BECOMING: Conditions expected to become as follows by 0100 UTC 24 May 2018
Winds: from the E (90 degrees) at 2 MPH (2 knots; 1.0 m/s)
Visibility: 5 miles (8 km)
Weather: no significant weather forecast for this period
Forecast for: SBGR (GUARULHOS (CIV/M, BR)
Text: TAF SBGR 231002Z 2312/2418 09002KT 8000 NSC TX22/2317Z TN08/2409Z
Forecast period: 0900 to 1100 UTC 24 May 2018
Forecast type: PROBABLE: 30 percent likelihood of the following during this time
Visibility: 1.24 miles (2.00 km)
Ceiling: 200 feet AGL
Clouds: broken clouds at 200 feet AGL
Weather: BR  (mist)
Forecast for: SBGR (GUARULHOS (CIV/M, BR)
Text: TAF SBGR 231002Z 2312/2418 09002KT 8000 NSC TX22/2317Z TN08/2409Z
Forecast period: 0900 to 1100 UTC 24 May 2018
Forecast type: PROBABLE: 30 percent likelihood of the following during this time
Visibility: 1.24 miles (2.00 km)
Ceiling: 200 feet AGL
Clouds: broken clouds at 200 feet AGL
Weather: BR  (mist)
Forecast for: SBGR (GUARULHOS (CIV/M, BR)
Text: TAF SBGR 231002Z 2312/2418 09002KT 8000 NSC TX22/2317Z TN08/2409Z
Forecast period: 1200 to 1800 UTC 24 May 2018
Forecast type: BECOMING: Conditions expected to become as follows by 1400 UTC 24 May 2018
Winds: from the E (90 degrees) at 6 MPH (5 knots; 2.6 m/s)
Visibility: 5 miles (8 km)
Weather: no significant weather forecast for this period
Forecast for: SBGR (GUARULHOS (CIV/M, BR)
Text: TAF SBGR 231002Z 2312/2418 09002KT 8000 NSC TX22/2317Z TN08/2409Z
Forecast period: 1200 to 1800 UTC 24 May 2018
Forecast type: BECOMING: Conditions expected to become as follows by 1400 UTC 24 May 2018
Winds: from the E (90 degrees) at 6 MPH (5 knots; 2.6 m/s)
Visibility: 5 miles (8 km)
Weather: no significant weather forecast for this period

 AIRPORT MAP

 RUNWAY INFORMATION
Runway 09L Runway length 12139 ft Runway width 148 ft
Runway elevation 2445 ft Runway displaced threshold 0 ft Runway heading 74
Runway 27R Runway length 12139 ft Runway width 148 ft
Runway elevation 2440 ft Runway displaced threshold 0 ft Runway heading 254
Runway 09R Runway length 9843 ft Runway width 148 ft
Runway elevation 2450 ft Runway displaced threshold 0 ft Runway heading 74
Runway 27L Runway length 9843 ft Runway width 148 ft
Runway elevation 2445 ft Runway displaced threshold 0 ft Runway heading 254

 AIRPORT FREQUENCIES
Type APP Name SAO PAULO Frequency 119.8 MHZ
Type ATIS Name ATIS Frequency 127.75 MHZ
Type CLD Name CLNC DEL Frequency 121 MHZ
Type GND Name GND Frequency 121.7 MHZ
Type ILS: Name RWY 27L Frequency 111.1 MHZ
Type OPS Name SAO PAULO Frequency 122.5 MHZ
Type TWR Name TWR Frequency 118.4 MHZ

 AIRPORT NEAR NAVIGATION AIDS
Type VOR-DME Name Bonsucesso Frequency 116000 KHZ
Type NDB Name Perus Frequency 220 KHZ